createdAt,value
2022-09-02T00:00:09.410Z,31.48
2022-09-02T00:05:14.633Z,31.46
2022-09-02T00:10:18.561Z,31.46
2022-09-02T00:15:21.383Z,31.37
2022-09-02T00:20:26.609Z,31.30
2022-09-02T00:25:30.216Z,31.26
2022-09-02T00:30:34.580Z,31.27
2022-09-02T00:35:40.114Z,31.20
2022-09-02T00:40:47.326Z,31.02
2022-09-02T00:45:51.292Z,30.90
2022-09-02T00:50:56.281Z,30.79
2022-09-02T00:56:03.229Z,30.64
2022-09-02T01:01:07.112Z,30.55
2022-09-02T01:06:13.483Z,30.44
2022-09-02T01:11:17.165Z,30.39
2022-09-02T01:16:25.622Z,30.24
2022-09-02T01:21:30.967Z,30.05
2022-09-02T01:26:36.224Z,29.92
2022-09-02T01:31:40.116Z,29.71
2022-09-02T01:36:45.015Z,29.42
2022-09-02T01:41:50.317Z,29.06
2022-09-02T01:46:53.942Z,28.69
2022-09-02T01:51:57.598Z,28.42
2022-09-02T01:57:02.904Z,28.13
2022-09-02T02:02:07.559Z,27.88
2022-09-02T02:07:11.280Z,27.64
2022-09-02T02:12:17.214Z,27.45
2022-09-02T02:17:20.802Z,27.29
2022-09-02T02:22:24.425Z,27.00
2022-09-02T02:27:29.659Z,26.73
2022-09-02T02:32:33.850Z,26.44
2022-09-02T02:37:37.700Z,26.15
2022-09-02T02:42:42.965Z,25.98
2022-09-02T02:47:46.589Z,25.69
2022-09-02T02:52:50.677Z,25.59
2022-09-02T02:57:55.947Z,25.28
2022-09-02T03:03:01.019Z,25.19
2022-09-02T03:08:05.645Z,24.98
2022-09-02T03:13:12.557Z,24.74
2022-09-02T03:18:16.225Z,24.58
2022-09-02T03:23:19.897Z,24.26
2022-09-02T03:28:25.155Z,24.17
2022-09-02T03:33:28.789Z,23.99
2022-09-02T03:38:32.402Z,23.86
2022-09-02T03:43:37.626Z,23.70
2022-09-02T03:48:41.580Z,23.39
2022-09-02T03:53:45.239Z,23.24
2022-09-02T03:58:52.113Z,23.06
2022-09-02T04:03:56.556Z,22.81
2022-09-02T04:09:00.268Z,22.74
2022-09-02T04:14:05.515Z,22.55
2022-09-02T04:19:09.138Z,22.45
2022-09-02T04:24:13.181Z,22.38
2022-09-02T04:29:18.945Z,22.21
2022-09-02T04:34:23.451Z,22.22
2022-09-02T04:39:27.106Z,22.12
2022-09-02T04:44:33.105Z,22.01
2022-09-02T04:49:36.737Z,21.96
2022-09-02T04:54:40.602Z,21.81
2022-09-02T04:59:46.018Z,21.53
2022-09-02T05:04:49.771Z,21.54
2022-09-02T05:09:58.041Z,21.49
2022-09-02T05:15:03.579Z,21.39
2022-09-02T05:20:08.907Z,20.98
2022-09-02T05:25:12.703Z,20.71
2022-09-02T05:30:18.051Z,20.43
2022-09-02T05:35:21.725Z,20.32
2022-09-02T05:40:25.873Z,20.26
2022-09-02T05:45:34.561Z,20.03
2022-09-02T05:50:38.951Z,19.88
2022-09-02T05:55:42.550Z,19.83
2022-09-02T06:00:47.754Z,19.63
2022-09-02T06:06:01.741Z,19.53
2022-09-02T06:11:10.633Z,19.31
2022-09-02T06:16:18.853Z,19.24
2022-09-02T06:21:23.075Z,19.18
2022-09-02T06:26:27.170Z,19.18
2022-09-02T06:31:34.460Z,19.10
2022-09-02T06:36:38.687Z,18.91
2022-09-02T06:41:44.184Z,18.82
2022-09-02T06:46:51.678Z,18.68
2022-09-02T06:51:58.905Z,18.59
2022-09-02T06:57:02.483Z,18.43
2022-09-02T07:02:08.207Z,18.38
2022-09-02T07:07:12.152Z,18.37
2022-09-02T07:12:15.764Z,18.23
2022-09-02T07:17:22.025Z,17.98
2022-09-02T07:22:25.694Z,17.95
2022-09-02T07:27:29.292Z,17.90
2022-09-02T07:32:34.722Z,17.75
2022-09-02T07:37:38.562Z,17.78
2022-09-02T07:42:42.202Z,17.75
2022-09-02T07:47:47.612Z,17.56
2022-09-02T07:52:51.185Z,17.50
2022-09-02T07:57:55.470Z,17.38
2022-09-02T08:03:01.305Z,17.19
2022-09-02T08:08:06.346Z,17.22
2022-09-02T08:13:10.522Z,17.21
2022-09-02T08:18:22.307Z,17.12
2022-09-02T08:23:36.695Z,16.92
2022-09-02T08:28:41.636Z,16.82
2022-09-02T08:33:46.955Z,16.86
2022-09-02T08:38:50.546Z,16.73
2022-09-02T08:43:58.043Z,16.52
2022-09-02T08:49:07.889Z,16.49
2022-09-02T08:54:20.223Z,16.30
2022-09-02T08:59:25.151Z,16.34
2022-09-02T09:04:51.162Z,16.46
2022-09-02T09:10:09.191Z,16.38
2022-09-02T09:15:18.560Z,16.30
2022-09-02T09:20:27.398Z,16.13
2022-09-02T09:25:31.403Z,15.86
2022-09-02T09:30:34.963Z,15.79
2022-09-02T09:35:51.522Z,15.89
2022-09-02T09:41:18.376Z,15.71
2022-09-02T09:46:27.864Z,15.66
2022-09-02T09:51:49.791Z,15.51
2022-09-02T09:56:55.238Z,15.27
2022-09-02T10:01:58.890Z,15.24
2022-09-02T10:07:04.229Z,15.34
2022-09-02T10:12:09.207Z,15.41
2022-09-02T10:17:33.185Z,15.34
2022-09-02T10:23:14.174Z,15.37
2022-09-02T10:28:28.831Z,15.22
2022-09-02T10:33:43.614Z,15.18
2022-09-02T10:38:50.306Z,15.05
2022-09-02T10:44:08.770Z,14.80
2022-09-02T10:49:20.791Z,14.68
2022-09-02T10:54:38.927Z,14.81
2022-09-02T10:59:48.384Z,14.88
2022-09-02T11:04:55.021Z,14.72
2022-09-02T11:10:07.841Z,14.58
2022-09-02T11:15:16.452Z,14.56
2022-09-02T11:20:30.121Z,14.61
2022-09-02T11:25:42.795Z,14.41
2022-09-02T11:30:52.457Z,14.37
2022-09-02T11:35:58.911Z,14.30
2022-09-02T11:41:38.984Z,14.32
2022-09-02T11:47:04.668Z,14.42
2022-09-02T11:52:29.031Z,14.73
2022-09-02T11:57:34.936Z,14.57
2022-09-02T12:02:43.872Z,14.35
2022-09-02T12:07:51.092Z,14.62
2022-09-02T12:13:09.728Z,14.78
2022-09-02T12:18:27.531Z,14.76
2022-09-02T12:24:08.437Z,14.88
2022-09-02T12:29:32.732Z,14.65
2022-09-02T12:34:56.164Z,14.45
2022-09-02T12:40:11.300Z,14.48
2022-09-02T12:45:28.977Z,14.30
2022-09-02T12:50:33.658Z,13.94
2022-09-02T12:55:39.427Z,13.86
2022-09-02T13:01:02.541Z,13.63
2022-09-02T13:06:15.293Z,13.56
2022-09-02T13:11:49.111Z,13.58
2022-09-02T13:17:35.743Z,13.47
2022-09-02T13:23:11.496Z,13.48
2022-09-02T13:28:42.791Z,13.42
2022-09-02T13:33:48.338Z,13.36
2022-09-02T13:38:51.952Z,13.24
2022-09-02T13:44:07.482Z,13.10
2022-09-02T13:49:23.524Z,13.15
2022-09-02T13:54:34.773Z,13.25
2022-09-02T13:59:40.593Z,13.15
2022-09-02T14:04:46.026Z,13.09
2022-09-02T14:09:50.383Z,13.14
2022-09-02T14:14:54.307Z,13.41
2022-09-02T14:20:19.782Z,13.75
2022-09-02T14:25:27.410Z,13.64
2022-09-02T14:30:34.195Z,13.62
2022-09-02T14:35:39.573Z,13.76
2022-09-02T14:40:43.645Z,13.96
2022-09-02T14:45:50.845Z,14.43
2022-09-02T14:51:03.205Z,14.68
2022-09-02T14:56:08.021Z,15.06
2022-09-02T15:01:11.708Z,15.34
2022-09-02T15:06:16.986Z,15.55
2022-09-02T15:11:20.629Z,15.57
2022-09-02T15:16:24.235Z,15.54
2022-09-02T15:21:29.460Z,15.70
2022-09-02T15:26:33.036Z,16.46
2022-09-02T15:31:36.609Z,17.02
2022-09-02T15:36:41.870Z,17.79
2022-09-02T15:41:45.483Z,18.22
2022-09-02T15:46:49.079Z,18.71
2022-09-02T15:51:55.528Z,19.18
2022-09-02T15:57:00.031Z,19.08
2022-09-02T16:02:03.707Z,19.30
2022-09-02T16:07:08.992Z,19.89
2022-09-02T16:12:12.577Z,20.03
2022-09-02T16:17:16.156Z,20.35
2022-09-02T16:22:21.385Z,20.85
2022-09-02T16:27:24.970Z,21.30
2022-09-02T16:32:28.564Z,21.27
2022-09-02T16:37:33.804Z,21.84
2022-09-02T16:42:38.414Z,22.13
2022-09-02T16:47:42.113Z,22.44
2022-09-02T16:52:47.311Z,22.55
2022-09-02T16:57:50.907Z,22.81
2022-09-02T17:02:54.574Z,22.69
2022-09-02T17:07:59.851Z,23.06
2022-09-02T17:13:03.010Z,23.36
2022-09-02T17:18:07.846Z,23.51
2022-09-02T17:23:13.077Z,23.74
2022-09-02T17:28:15.901Z,24.16
2022-09-02T17:33:19.482Z,24.50
2022-09-02T17:38:27.299Z,24.68
2022-09-02T17:43:31.042Z,24.70
2022-09-02T17:48:53.538Z,25.08
2022-09-02T17:54:00.042Z,24.96
2022-09-02T17:59:17.984Z,25.12
2022-09-02T18:04:30.404Z,24.99
2022-09-02T18:09:35.602Z,25.70
2022-09-02T18:14:44.190Z,25.82
2022-09-02T18:19:58.794Z,25.94
2022-09-02T18:25:15.274Z,26.08
2022-09-02T18:30:21.803Z,26.13
2022-09-02T18:35:36.495Z,26.34
2022-09-02T18:40:49.888Z,26.47
2022-09-02T18:45:56.755Z,26.70
2022-09-02T18:51:09.911Z,26.73
2022-09-02T18:56:16.674Z,26.73
2022-09-02T19:01:24.393Z,26.63
2022-09-02T19:06:30.302Z,26.31
2022-09-02T19:11:38.175Z,26.46
2022-09-02T19:16:41.791Z,26.47
2022-09-02T19:21:50.512Z,26.28
2022-09-02T19:27:00.101Z,26.12
2022-09-02T19:32:03.790Z,26.09
2022-09-02T19:37:08.649Z,26.26
2022-09-02T19:42:13.180Z,26.47
2022-09-02T19:52:41.899Z,26.34
2022-09-02T19:57:47.452Z,26.34
2022-09-02T20:02:51.076Z,26.55
2022-09-02T20:07:54.708Z,26.67
2022-09-02T20:13:00.887Z,26.56
2022-09-02T20:18:11.671Z,26.36
2022-09-02T20:23:17.463Z,26.06
2022-09-02T20:28:26.364Z,26.12
2022-09-02T20:33:36.319Z,26.10
2022-09-02T20:39:02.014Z,26.24
2022-09-02T20:44:27.917Z,26.51
2022-09-02T20:49:51.975Z,26.69
2022-09-02T20:54:59.956Z,26.82
2022-09-02T21:00:08.102Z,27.14
2022-09-02T21:05:22.506Z,27.73
2022-09-02T21:10:32.433Z,28.08
2022-09-02T21:15:45.571Z,28.15
2022-09-02T21:20:55.592Z,28.48
2022-09-02T21:26:04.724Z,28.56
2022-09-02T21:31:17.861Z,28.94
2022-09-02T21:36:27.654Z,28.88
2022-09-02T21:41:34.332Z,28.81
2022-09-02T21:46:47.935Z,28.79
2022-09-02T21:52:02.564Z,28.80
2022-09-02T21:57:12.875Z,28.89
2022-09-02T22:02:27.850Z,29.13
2022-09-02T22:07:37.962Z,29.34
2022-09-02T22:12:50.090Z,29.58
2022-09-02T22:18:05.358Z,29.80
2022-09-02T22:23:18.133Z,29.93
2022-09-02T22:28:32.166Z,29.94
2022-09-02T22:33:48.666Z,29.85
2022-09-02T22:38:52.382Z,29.96
2022-09-02T22:44:03.449Z,30.04
2022-09-02T22:49:14.645Z,30.01
2022-09-02T22:54:18.257Z,29.95
2022-09-02T22:59:39.088Z,29.73
2022-09-02T23:05:00.936Z,29.63
2022-09-02T23:10:24.333Z,29.47
2022-09-02T23:15:35.986Z,29.26
2022-09-02T23:20:47.506Z,29.15
2022-09-02T23:26:02.134Z,29.05
2022-09-02T23:31:13.278Z,28.98
2022-09-02T23:36:25.573Z,28.97
2022-09-02T23:41:29.178Z,29.03
2022-09-02T23:46:46.985Z,29.12
2022-09-02T23:51:58.211Z,29.09
2022-09-02T23:57:13.797Z,28.99
